Terminal Aerodrome Forecast
Issued by NWS

Home | Current Version | Previous Version | Text Only | Print | Product List | Glossary On
Versions: 1 2 3 4 5 6 7 8 9 10 11 12 13 14 15 16 17
000
FTUS41 KCAR 230520
TAFFVE
TAF
KFVE 230520Z 2306/2406 18008KT 6SM -SHRA OVC015
     FM230900 19007KT 6SM BR VCSH OVC009
     FM231300 23009KT P6SM BKN020
     FM231700 27009KT P6SM BKN040
     FM240100 27005KT P6SM SCT120=

USA.gov is the U.S. government's official web portal to all federal, state and local government web resources and services.